sensor_id;sensor_type;location;lat;lon;timestamp;P1;durP1;ratioP1;P2;durP2;ratioP2
40044;SDS011;25735;48.122;11.422;2022-10-04T00:05:13;4.47;;;3.97;;
40044;SDS011;25735;48.122;11.422;2022-10-04T00:10:16;7.07;;;4.40;;
40044;SDS011;25735;48.122;11.422;2022-10-04T00:12:50;4.80;;;4.13;;
40044;SDS011;25735;48.122;11.422;2022-10-04T00:15:23;5.68;;;4.28;;
40044;SDS011;25735;48.122;11.422;2022-10-04T00:20:54;4.93;;;3.90;;
40044;SDS011;25735;48.122;11.422;2022-10-04T00:25:49;6.53;;;3.80;;
40044;SDS011;25735;48.122;11.422;2022-10-04T00:30:40;6.07;;;3.95;;
40044;SDS011;25735;48.122;11.422;2022-10-04T00:33:05;6.30;;;4.10;;
40044;SDS011;25735;48.122;11.422;2022-10-04T00:35:44;5.90;;;4.15;;
40044;SDS011;25735;48.122;11.422;2022-10-04T00:38:13;5.82;;;3.95;;
40044;SDS011;25735;48.122;11.422;2022-10-04T00:43:18;5.65;;;3.42;;
40044;SDS011;25735;48.122;11.422;2022-10-04T00:45:48;5.88;;;4.07;;
40044;SDS011;25735;48.122;11.422;2022-10-04T00:50:51;5.97;;;4.23;;
40044;SDS011;25735;48.122;11.422;2022-10-04T00:53:34;8.20;;;3.60;;
40044;SDS011;25735;48.122;11.422;2022-10-04T00:56:01;5.05;;;3.67;;
40044;SDS011;25735;48.122;11.422;2022-10-04T00:58:35;7.25;;;4.15;;
40044;SDS011;25735;48.122;11.422;2022-10-04T01:01:02;4.60;;;3.70;;
40044;SDS011;25735;48.122;11.422;2022-10-04T01:03:29;7.63;;;3.92;;
40044;SDS011;25735;48.122;11.422;2022-10-04T01:05:58;4.00;;;3.08;;
40044;SDS011;25735;48.122;11.422;2022-10-04T01:11:27;7.72;;;3.95;;
40044;SDS011;25735;48.122;11.422;2022-10-04T01:13:55;4.97;;;3.95;;
40044;SDS011;25735;48.122;11.422;2022-10-04T01:16:22;5.22;;;3.72;;
40044;SDS011;25735;48.122;11.422;2022-10-04T01:18:48;5.45;;;3.65;;
40044;SDS011;25735;48.122;11.422;2022-10-04T01:24:27;4.15;;;3.72;;
40044;SDS011;25735;48.122;11.422;2022-10-04T01:26:34;3.95;;;3.28;;
40044;SDS011;25735;48.122;11.422;2022-10-04T01:31:28;3.60;;;3.22;;
40044;SDS011;25735;48.122;11.422;2022-10-04T01:33:55;7.25;;;3.50;;
40044;SDS011;25735;48.122;11.422;2022-10-04T01:36:20;7.90;;;3.38;;
40044;SDS011;25735;48.122;11.422;2022-10-04T01:38:46;5.05;;;3.70;;
40044;SDS011;25735;48.122;11.422;2022-10-04T01:41:11;5.47;;;3.80;;
40044;SDS011;25735;48.122;11.422;2022-10-04T01:43:38;4.35;;;3.47;;
40044;SDS011;25735;48.122;11.422;2022-10-04T01:46:10;5.88;;;3.97;;
40044;SDS011;25735;48.122;11.422;2022-10-04T01:48:37;6.65;;;3.40;;
40044;SDS011;25735;48.122;11.422;2022-10-04T01:51:12;3.85;;;3.28;;
40044;SDS011;25735;48.122;11.422;2022-10-04T01:53:44;6.68;;;3.90;;
40044;SDS011;25735;48.122;11.422;2022-10-04T01:56:13;3.25;;;2.95;;
40044;SDS011;25735;48.122;11.422;2022-10-04T01:58:40;5.05;;;3.25;;
40044;SDS011;25735;48.122;11.422;2022-10-04T02:01:14;3.78;;;3.00;;
40044;SDS011;25735;48.122;11.422;2022-10-04T02:03:42;3.90;;;3.10;;
40044;SDS011;25735;48.122;11.422;2022-10-04T02:06:08;4.82;;;3.42;;
40044;SDS011;25735;48.122;11.422;2022-10-04T02:08:36;5.60;;;3.30;;
40044;SDS011;25735;48.122;11.422;2022-10-04T02:11:02;6.28;;;3.22;;
40044;SDS011;25735;48.122;11.422;2022-10-04T02:13:31;4.20;;;2.90;;
40044;SDS011;25735;48.122;11.422;2022-10-04T02:15:58;8.60;;;3.40;;
40044;SDS011;25735;48.122;11.422;2022-10-04T02:18:23;3.13;;;2.83;;
40044;SDS011;25735;48.122;11.422;2022-10-04T02:20:49;5.45;;;3.28;;
40044;SDS011;25735;48.122;11.422;2022-10-04T02:23:15;5.10;;;3.35;;
40044;SDS011;25735;48.122;11.422;2022-10-04T02:25:41;5.53;;;2.80;;
40044;SDS011;25735;48.122;11.422;2022-10-04T02:28:09;4.22;;;2.83;;
40044;SDS011;25735;48.122;11.422;2022-10-04T02:30:35;3.30;;;2.65;;
40044;SDS011;25735;48.122;11.422;2022-10-04T02:33:01;4.13;;;3.22;;
40044;SDS011;25735;48.122;11.422;2022-10-04T02:35:31;5.65;;;3.50;;
40044;SDS011;25735;48.122;11.422;2022-10-04T02:38:16;3.97;;;3.00;;
40044;SDS011;25735;48.122;11.422;2022-10-04T02:43:21;3.78;;;2.40;;
40044;SDS011;25735;48.122;11.422;2022-10-04T02:45:50;3.92;;;2.70;;
40044;SDS011;25735;48.122;11.422;2022-10-04T02:50:46;7.88;;;3.40;;
40044;SDS011;25735;48.122;11.422;2022-10-04T02:55:41;5.07;;;3.20;;
40044;SDS011;25735;48.122;11.422;2022-10-04T02:58:08;2.83;;;2.53;;
40044;SDS011;25735;48.122;11.422;2022-10-04T03:00:34;5.43;;;3.00;;
40044;SDS011;25735;48.122;11.422;2022-10-04T03:05:33;3.77;;;3.13;;
40044;SDS011;25735;48.122;11.422;2022-10-04T03:07:59;2.95;;;2.20;;
40044;SDS011;25735;48.122;11.422;2022-10-04T03:10:25;5.72;;;2.80;;
40044;SDS011;25735;48.122;11.422;2022-10-04T03:12:51;4.13;;;2.80;;
40044;SDS011;25735;48.122;11.422;2022-10-04T03:15:17;5.90;;;2.60;;
40044;SDS011;25735;48.122;11.422;2022-10-04T03:17:42;3.38;;;2.67;;
40044;SDS011;25735;48.122;11.422;2022-10-04T03:20:08;3.78;;;2.80;;
40044;SDS011;25735;48.122;11.422;2022-10-04T03:22:35;3.47;;;2.40;;
40044;SDS011;25735;48.122;11.422;2022-10-04T03:25:00;4.50;;;2.50;;
40044;SDS011;25735;48.122;11.422;2022-10-04T03:27:27;5.07;;;2.35;;
40044;SDS011;25735;48.122;11.422;2022-10-04T03:29:53;3.53;;;2.42;;
40044;SDS011;25735;48.122;11.422;2022-10-04T03:32:19;5.25;;;3.03;;
40044;SDS011;25735;48.122;11.422;2022-10-04T03:34:51;3.17;;;2.50;;
40044;SDS011;25735;48.122;11.422;2022-10-04T03:37:17;5.00;;;2.67;;
40044;SDS011;25735;48.122;11.422;2022-10-04T03:39:45;3.42;;;2.15;;
40044;SDS011;25735;48.122;11.422;2022-10-04T03:42:11;2.72;;;2.40;;
40044;SDS011;25735;48.122;11.422;2022-10-04T03:44:37;3.42;;;2.40;;
40044;SDS011;25735;48.122;11.422;2022-10-04T03:47:14;2.92;;;2.72;;
40044;SDS011;25735;48.122;11.422;2022-10-04T03:49:40;2.88;;;2.47;;
40044;SDS011;25735;48.122;11.422;2022-10-04T03:52:08;3.80;;;2.78;;
40044;SDS011;25735;48.122;11.422;2022-10-04T03:54:38;5.75;;;2.90;;
40044;SDS011;25735;48.122;11.422;2022-10-04T03:57:10;3.38;;;2.35;;
40044;SDS011;25735;48.122;11.422;2022-10-04T03:59:36;5.95;;;2.17;;
40044;SDS011;25735;48.122;11.422;2022-10-04T04:02:09;4.63;;;2.20;;
40044;SDS011;25735;48.122;11.422;2022-10-04T04:04:46;3.05;;;2.35;;
40044;SDS011;25735;48.122;11.422;2022-10-04T04:10:16;2.80;;;2.43;;
40044;SDS011;25735;48.122;11.422;2022-10-04T04:12:47;6.60;;;2.35;;
40044;SDS011;25735;48.122;11.422;2022-10-04T04:15:16;2.97;;;2.15;;
40044;SDS011;25735;48.122;11.422;2022-10-04T04:17:41;3.42;;;2.53;;
40044;SDS011;25735;48.122;11.422;2022-10-04T04:22:42;2.92;;;2.35;;
40044;SDS011;25735;48.122;11.422;2022-10-04T04:25:11;5.30;;;2.55;;
40044;SDS011;25735;48.122;11.422;2022-10-04T04:27:38;4.03;;;2.85;;
40044;SDS011;25735;48.122;11.422;2022-10-04T04:30:04;5.22;;;2.45;;
40044;SDS011;25735;48.122;11.422;2022-10-04T04:32:32;8.93;;;2.58;;
40044;SDS011;25735;48.122;11.422;2022-10-04T04:34:59;3.22;;;2.60;;
40044;SDS011;25735;48.122;11.422;2022-10-04T04:37:30;3.33;;;2.75;;
40044;SDS011;25735;48.122;11.422;2022-10-04T04:39:56;2.95;;;2.38;;
40044;SDS011;25735;48.122;11.422;2022-10-04T04:42:34;3.55;;;2.20;;
40044;SDS011;25735;48.122;11.422;2022-10-04T04:45:01;4.70;;;2.38;;
40044;SDS011;25735;48.122;11.422;2022-10-04T04:47:37;4.30;;;2.28;;
40044;SDS011;25735;48.122;11.422;2022-10-04T04:50:11;3.63;;;2.50;;
40044;SDS011;25735;48.122;11.422;2022-10-04T04:52:37;7.10;;;2.72;;
40044;SDS011;25735;48.122;11.422;2022-10-04T04:55:03;3.15;;;2.15;;
40044;SDS011;25735;48.122;11.422;2022-10-04T04:57:29;4.47;;;2.75;;
40044;SDS011;25735;48.122;11.422;2022-10-04T04:59:56;4.15;;;2.75;;
40044;SDS011;25735;48.122;11.422;2022-10-04T05:02:56;3.40;;;2.65;;
40044;SDS011;25735;48.122;11.422;2022-10-04T05:05:18;4.05;;;2.75;;
40044;SDS011;25735;48.122;11.422;2022-10-04T05:07:44;3.80;;;2.53;;
40044;SDS011;25735;48.122;11.422;2022-10-04T05:12:47;3.30;;;2.45;;
40044;SDS011;25735;48.122;11.422;2022-10-04T05:15:12;3.40;;;2.15;;
40044;SDS011;25735;48.122;11.422;2022-10-04T05:17:38;2.45;;;2.05;;
40044;SDS011;25735;48.122;11.422;2022-10-04T05:20:03;3.67;;;2.60;;
40044;SDS011;25735;48.122;11.422;2022-10-04T05:22:29;2.47;;;2.00;;
40044;SDS011;25735;48.122;11.422;2022-10-04T05:25:01;5.28;;;2.20;;
40044;SDS011;25735;48.122;11.422;2022-10-04T05:27:35;3.20;;;2.10;;
40044;SDS011;25735;48.122;11.422;2022-10-04T05:32:31;3.90;;;2.60;;
40044;SDS011;25735;48.122;11.422;2022-10-04T05:34:58;2.92;;;2.17;;
40044;SDS011;25735;48.122;11.422;2022-10-04T05:37:43;5.40;;;2.75;;
40044;SDS011;25735;48.122;11.422;2022-10-04T05:42:41;4.75;;;3.13;;
40044;SDS011;25735;48.122;11.422;2022-10-04T05:45:28;4.63;;;3.45;;
40044;SDS011;25735;48.122;11.422;2022-10-04T05:47:57;4.03;;;2.92;;
40044;SDS011;25735;48.122;11.422;2022-10-04T05:52:52;4.65;;;3.50;;
40044;SDS011;25735;48.122;11.422;2022-10-04T05:55:22;4.53;;;3.38;;
40044;SDS011;25735;48.122;11.422;2022-10-04T05:57:59;6.28;;;3.58;;
40044;SDS011;25735;48.122;11.422;2022-10-04T06:00:38;5.35;;;3.90;;
40044;SDS011;25735;48.122;11.422;2022-10-04T06:03:15;5.15;;;4.28;;
40044;SDS011;25735;48.122;11.422;2022-10-04T06:05:48;5.47;;;3.97;;
40044;SDS011;25735;48.122;11.422;2022-10-04T06:08:22;5.60;;;3.53;;
40044;SDS011;25735;48.122;11.422;2022-10-04T06:13:43;3.72;;;2.80;;
40044;SDS011;25735;48.122;11.422;2022-10-04T06:21:28;3.35;;;2.72;;
40044;SDS011;25735;48.122;11.422;2022-10-04T06:26:24;6.32;;;3.80;;
40044;SDS011;25735;48.122;11.422;2022-10-04T06:28:53;5.70;;;4.10;;
40044;SDS011;25735;48.122;11.422;2022-10-04T06:36:45;7.00;;;3.50;;
40044;SDS011;25735;48.122;11.422;2022-10-04T06:39:25;5.22;;;3.75;;
40044;SDS011;25735;48.122;11.422;2022-10-04T06:52:24;6.87;;;4.47;;
40044;SDS011;25735;48.122;11.422;2022-10-04T06:54:54;6.35;;;3.47;;
40044;SDS011;25735;48.122;11.422;2022-10-04T07:02:24;8.43;;;4.53;;
40044;SDS011;25735;48.122;11.422;2022-10-04T07:04:54;6.38;;;4.57;;
40044;SDS011;25735;48.122;11.422;2022-10-04T07:09:53;6.55;;;4.82;;
40044;SDS011;25735;48.122;11.422;2022-10-04T07:12:20;7.53;;;4.88;;
40044;SDS011;25735;48.122;11.422;2022-10-04T07:14:47;7.72;;;4.20;;
40044;SDS011;25735;48.122;11.422;2022-10-04T07:17:16;6.32;;;4.95;;
40044;SDS011;25735;48.122;11.422;2022-10-04T07:19:51;5.70;;;4.70;;
40044;SDS011;25735;48.122;11.422;2022-10-04T07:22:20;6.43;;;4.20;;
40044;SDS011;25735;48.122;11.422;2022-10-04T07:24:58;6.72;;;4.65;;
40044;SDS011;25735;48.122;11.422;2022-10-04T07:29:52;11.18;;;5.55;;
40044;SDS011;25735;48.122;11.422;2022-10-04T07:32:26;8.60;;;5.53;;
40044;SDS011;25735;48.122;11.422;2022-10-04T07:34:54;5.75;;;4.93;;
40044;SDS011;25735;48.122;11.422;2022-10-04T07:37:21;5.45;;;3.95;;
40044;SDS011;25735;48.122;11.422;2022-10-04T07:42:30;6.32;;;4.72;;
40044;SDS011;25735;48.122;11.422;2022-10-04T07:45:02;6.85;;;4.68;;
40044;SDS011;25735;48.122;11.422;2022-10-04T07:47:28;7.43;;;4.68;;
40044;SDS011;25735;48.122;11.422;2022-10-04T07:49:55;5.28;;;4.22;;
40044;SDS011;25735;48.122;11.422;2022-10-04T08:10:13;8.70;;;4.55;;
40044;SDS011;25735;48.122;11.422;2022-10-04T08:15:15;5.40;;;4.25;;
40044;SDS011;25735;48.122;11.422;2022-10-04T08:25:33;9.07;;;4.57;;
40044;SDS011;25735;48.122;11.422;2022-10-04T08:33:41;6.93;;;3.75;;
40044;SDS011;25735;48.122;11.422;2022-10-04T08:36:30;5.53;;;3.60;;
40044;SDS011;25735;48.122;11.422;2022-10-04T08:38:57;6.55;;;3.75;;
40044;SDS011;25735;48.122;11.422;2022-10-04T08:41:43;5.72;;;3.78;;
40044;SDS011;25735;48.122;11.422;2022-10-04T08:57:30;3.80;;;3.10;;
40044;SDS011;25735;48.122;11.422;2022-10-04T09:00:07;5.50;;;3.38;;
40044;SDS011;25735;48.122;11.422;2022-10-04T09:05:16;3.55;;;3.22;;
40044;SDS011;25735;48.122;11.422;2022-10-04T09:15:44;5.65;;;3.15;;
40044;SDS011;25735;48.122;11.422;2022-10-04T09:20:55;5.97;;;2.83;;
40044;SDS011;25735;48.122;11.422;2022-10-04T09:41:50;4.23;;;2.60;;
40044;SDS011;25735;48.122;11.422;2022-10-04T09:57:39;3.03;;;1.88;;
40044;SDS011;25735;48.122;11.422;2022-10-04T10:00:18;3.17;;;1.98;;
40044;SDS011;25735;48.122;11.422;2022-10-04T10:08:15;3.55;;;2.17;;
40044;SDS011;25735;48.122;11.422;2022-10-04T10:19:00;4.55;;;2.42;;
40044;SDS011;25735;48.122;11.422;2022-10-04T10:27:03;4.00;;;2.50;;
40044;SDS011;25735;48.122;11.422;2022-10-04T10:32:07;3.13;;;2.23;;
40044;SDS011;25735;48.122;11.422;2022-10-04T10:34:44;3.63;;;2.22;;
40044;SDS011;25735;48.122;11.422;2022-10-04T10:39:59;2.38;;;1.80;;
40044;SDS011;25735;48.122;11.422;2022-10-04T10:47:51;2.97;;;2.30;;
40044;SDS011;25735;48.122;11.422;2022-10-04T10:52:52;4.07;;;2.10;;
40044;SDS011;25735;48.122;11.422;2022-10-04T11:00:52;4.20;;;2.58;;
40044;SDS011;25735;48.122;11.422;2022-10-04T11:11:02;3.45;;;2.30;;
40044;SDS011;25735;48.122;11.422;2022-10-04T11:29:31;4.47;;;2.20;;
40044;SDS011;25735;48.122;11.422;2022-10-04T11:37:14;4.25;;;2.65;;
40044;SDS011;25735;48.122;11.422;2022-10-04T11:42:39;2.40;;;1.92;;
40044;SDS011;25735;48.122;11.422;2022-10-04T11:45:24;2.78;;;2.25;;
40044;SDS011;25735;48.122;11.422;2022-10-04T11:48:08;2.28;;;2.00;;
40044;SDS011;25735;48.122;11.422;2022-10-04T12:03:36;6.13;;;2.15;;
40044;SDS011;25735;48.122;11.422;2022-10-04T12:11:17;3.05;;;1.75;;
40044;SDS011;25735;48.122;11.422;2022-10-04T12:29:31;3.47;;;1.80;;
40044;SDS011;25735;48.122;11.422;2022-10-04T12:32:03;2.63;;;1.70;;
40044;SDS011;25735;48.122;11.422;2022-10-04T12:52:44;2.72;;;1.67;;
40044;SDS011;25735;48.122;11.422;2022-10-04T12:55:37;3.40;;;1.02;;
40044;SDS011;25735;48.122;11.422;2022-10-04T12:58:06;4.20;;;1.60;;
40044;SDS011;25735;48.122;11.422;2022-10-04T13:00:35;3.45;;;1.40;;
40044;SDS011;25735;48.122;11.422;2022-10-04T13:15:54;1.33;;;1.20;;
40044;SDS011;25735;48.122;11.422;2022-10-04T13:20:58;1.50;;;0.90;;
40044;SDS011;25735;48.122;11.422;2022-10-04T13:26:00;0.95;;;0.95;;
40044;SDS011;25735;48.122;11.422;2022-10-04T13:28:42;6.22;;;1.00;;
40044;SDS011;25735;48.122;11.422;2022-10-04T13:31:21;5.22;;;1.42;;
40044;SDS011;25735;48.122;11.422;2022-10-04T13:34:24;3.28;;;1.13;;
40044;SDS011;25735;48.122;11.422;2022-10-04T13:36:49;3.25;;;1.25;;
40044;SDS011;25735;48.122;11.422;2022-10-04T13:44:40;0.88;;;0.80;;
40044;SDS011;25735;48.122;11.422;2022-10-04T13:58:17;2.75;;;1.13;;
40044;SDS011;25735;48.122;11.422;2022-10-04T14:03:44;1.95;;;1.08;;
40044;SDS011;25735;48.122;11.422;2022-10-04T14:06:19;2.40;;;1.10;;
40044;SDS011;25735;48.122;11.422;2022-10-04T14:19:23;1.90;;;1.10;;
40044;SDS011;25735;48.122;11.422;2022-10-04T14:32:18;3.50;;;1.70;;
40044;SDS011;25735;48.122;11.422;2022-10-04T14:35:30;3.00;;;1.50;;
40044;SDS011;25735;48.122;11.422;2022-10-04T14:50:31;2.00;;;0.90;;
40044;SDS011;25735;48.122;11.422;2022-10-04T15:01:26;2.72;;;1.55;;
40044;SDS011;25735;48.122;11.422;2022-10-04T15:09:30;2.58;;;1.50;;
40044;SDS011;25735;48.122;11.422;2022-10-04T15:11:53;1.52;;;1.42;;
40044;SDS011;25735;48.122;11.422;2022-10-04T15:16:55;3.38;;;1.38;;
40044;SDS011;25735;48.122;11.422;2022-10-04T15:29:18;2.45;;;1.77;;
40044;SDS011;25735;48.122;11.422;2022-10-04T15:32:13;6.28;;;1.77;;
40044;SDS011;25735;48.122;11.422;2022-10-04T15:34:43;1.77;;;1.40;;
40044;SDS011;25735;48.122;11.422;2022-10-04T15:42:24;2.30;;;1.80;;
40044;SDS011;25735;48.122;11.422;2022-10-04T15:49:58;7.10;;;1.90;;
40044;SDS011;25735;48.122;11.422;2022-10-04T16:03:21;1.95;;;1.63;;
40044;SDS011;25735;48.122;11.422;2022-10-04T16:08:34;2.30;;;2.10;;
40044;SDS011;25735;48.122;11.422;2022-10-04T16:29:38;3.47;;;1.80;;
40044;SDS011;25735;48.122;11.422;2022-10-04T16:32:10;3.05;;;1.60;;
40044;SDS011;25735;48.122;11.422;2022-10-04T16:39:35;2.80;;;1.98;;
40044;SDS011;25735;48.122;11.422;2022-10-04T16:42:33;2.42;;;1.80;;
40044;SDS011;25735;48.122;11.422;2022-10-04T16:47:35;3.05;;;1.70;;
40044;SDS011;25735;48.122;11.422;2022-10-04T16:50:03;4.22;;;2.30;;
40044;SDS011;25735;48.122;11.422;2022-10-04T16:52:37;5.00;;;2.15;;
40044;SDS011;25735;48.122;11.422;2022-10-04T16:57:44;3.25;;;2.35;;
40044;SDS011;25735;48.122;11.422;2022-10-04T17:00:24;2.60;;;2.35;;
40044;SDS011;25735;48.122;11.422;2022-10-04T17:03:03;2.83;;;2.60;;
40044;SDS011;25735;48.122;11.422;2022-10-04T17:05:47;3.13;;;2.78;;
40044;SDS011;25735;48.122;11.422;2022-10-04T17:08:22;5.63;;;3.35;;
40044;SDS011;25735;48.122;11.422;2022-10-04T17:25:46;6.03;;;3.30;;
40044;SDS011;25735;48.122;11.422;2022-10-04T17:28:29;4.30;;;2.83;;
40044;SDS011;25735;48.122;11.422;2022-10-04T17:33:33;6.85;;;3.63;;
40044;SDS011;25735;48.122;11.422;2022-10-04T17:38:52;4.68;;;3.17;;
40044;SDS011;25735;48.122;11.422;2022-10-04T17:46:41;5.97;;;3.17;;
40044;SDS011;25735;48.122;11.422;2022-10-04T17:52:13;4.78;;;2.78;;
40044;SDS011;25735;48.122;11.422;2022-10-04T17:55:21;6.05;;;3.45;;
40044;SDS011;25735;48.122;11.422;2022-10-04T17:58:00;5.25;;;3.47;;
40044;SDS011;25735;48.122;11.422;2022-10-04T18:00:27;4.50;;;3.70;;
40044;SDS011;25735;48.122;11.422;2022-10-04T18:03:11;5.57;;;3.25;;
40044;SDS011;25735;48.122;11.422;2022-10-04T18:10:53;7.13;;;4.25;;
40044;SDS011;25735;48.122;11.422;2022-10-04T18:13:30;5.60;;;3.10;;
40044;SDS011;25735;48.122;11.422;2022-10-04T18:18:39;4.15;;;3.70;;
40044;SDS011;25735;48.122;11.422;2022-10-04T18:21:05;4.97;;;3.78;;
40044;SDS011;25735;48.122;11.422;2022-10-04T18:23:35;5.85;;;5.25;;
40044;SDS011;25735;48.122;11.422;2022-10-04T18:28:26;4.72;;;3.92;;
40044;SDS011;25735;48.122;11.422;2022-10-04T18:30:55;9.83;;;6.17;;
40044;SDS011;25735;48.122;11.422;2022-10-04T18:33:28;9.93;;;7.45;;
40044;SDS011;25735;48.122;11.422;2022-10-04T18:36:04;7.53;;;5.47;;
40044;SDS011;25735;48.122;11.422;2022-10-04T18:38:33;12.55;;;7.50;;
40044;SDS011;25735;48.122;11.422;2022-10-04T18:41:02;8.27;;;6.13;;
40044;SDS011;25735;48.122;11.422;2022-10-04T18:43:30;7.45;;;6.65;;
40044;SDS011;25735;48.122;11.422;2022-10-04T18:46:18;7.90;;;6.82;;
40044;SDS011;25735;48.122;11.422;2022-10-04T18:51:22;8.57;;;7.53;;
40044;SDS011;25735;48.122;11.422;2022-10-04T18:56:16;10.27;;;8.23;;
40044;SDS011;25735;48.122;11.422;2022-10-04T19:07:13;8.23;;;7.15;;
40044;SDS011;25735;48.122;11.422;2022-10-04T19:12:12;8.90;;;7.30;;
40044;SDS011;25735;48.122;11.422;2022-10-04T19:19:32;9.40;;;6.25;;
40044;SDS011;25735;48.122;11.422;2022-10-04T19:27:30;8.52;;;6.25;;
40044;SDS011;25735;48.122;11.422;2022-10-04T19:43:02;11.90;;;6.30;;
40044;SDS011;25735;48.122;11.422;2022-10-04T19:45:59;9.80;;;7.75;;
40044;SDS011;25735;48.122;11.422;2022-10-04T19:48:26;7.70;;;5.82;;
40044;SDS011;25735;48.122;11.422;2022-10-04T19:50:55;7.13;;;6.35;;
40044;SDS011;25735;48.122;11.422;2022-10-04T19:55:52;8.60;;;7.18;;
40044;SDS011;25735;48.122;11.422;2022-10-04T19:58:25;7.55;;;5.95;;
40044;SDS011;25735;48.122;11.422;2022-10-04T20:00:52;7.22;;;6.35;;
40044;SDS011;25735;48.122;11.422;2022-10-04T20:03:17;7.65;;;6.57;;
40044;SDS011;25735;48.122;11.422;2022-10-04T20:05:46;10.60;;;7.70;;
40044;SDS011;25735;48.122;11.422;2022-10-04T20:08:12;10.20;;;7.50;;
40044;SDS011;25735;48.122;11.422;2022-10-04T20:10:37;9.18;;;6.90;;
40044;SDS011;25735;48.122;11.422;2022-10-04T20:18:00;9.85;;;7.25;;
40044;SDS011;25735;48.122;11.422;2022-10-04T20:23:07;9.70;;;6.80;;
40044;SDS011;25735;48.122;11.422;2022-10-04T20:30:58;7.95;;;6.15;;
40044;SDS011;25735;48.122;11.422;2022-10-04T20:44:03;9.68;;;6.55;;
40044;SDS011;25735;48.122;11.422;2022-10-04T20:46:30;9.07;;;7.20;;
40044;SDS011;25735;48.122;11.422;2022-10-04T20:48:59;7.78;;;6.60;;
40044;SDS011;25735;48.122;11.422;2022-10-04T20:51:26;8.25;;;6.10;;
40044;SDS011;25735;48.122;11.422;2022-10-04T20:53:54;11.27;;;7.05;;
40044;SDS011;25735;48.122;11.422;2022-10-04T20:56:21;9.13;;;6.38;;
40044;SDS011;25735;48.122;11.422;2022-10-04T20:58:54;10.10;;;6.80;;
40044;SDS011;25735;48.122;11.422;2022-10-04T21:04:37;8.48;;;7.13;;
40044;SDS011;25735;48.122;11.422;2022-10-04T21:07:18;9.45;;;7.18;;
40044;SDS011;25735;48.122;11.422;2022-10-04T21:09:44;9.88;;;8.15;;
40044;SDS011;25735;48.122;11.422;2022-10-04T21:15:38;10.55;;;7.18;;
40044;SDS011;25735;48.122;11.422;2022-10-04T21:17:38;9.95;;;7.60;;
40044;SDS011;25735;48.122;11.422;2022-10-04T21:20:04;10.13;;;7.97;;
40044;SDS011;25735;48.122;11.422;2022-10-04T21:22:30;12.13;;;7.75;;
40044;SDS011;25735;48.122;11.422;2022-10-04T21:24:57;8.13;;;6.47;;
40044;SDS011;25735;48.122;11.422;2022-10-04T21:27:32;11.35;;;7.07;;
40044;SDS011;25735;48.122;11.422;2022-10-04T21:30:19;9.02;;;6.88;;
40044;SDS011;25735;48.122;11.422;2022-10-04T21:32:44;8.88;;;6.88;;
40044;SDS011;25735;48.122;11.422;2022-10-04T21:35:10;9.18;;;6.57;;
40044;SDS011;25735;48.122;11.422;2022-10-04T21:37:36;9.55;;;7.40;;
40044;SDS011;25735;48.122;11.422;2022-10-04T21:40:02;12.27;;;7.78;;
40044;SDS011;25735;48.122;11.422;2022-10-04T21:42:27;10.27;;;7.68;;
40044;SDS011;25735;48.122;11.422;2022-10-04T21:44:52;8.70;;;7.37;;
40044;SDS011;25735;48.122;11.422;2022-10-04T21:47:18;8.88;;;7.10;;
40044;SDS011;25735;48.122;11.422;2022-10-04T21:49:46;9.07;;;6.93;;
40044;SDS011;25735;48.122;11.422;2022-10-04T21:52:11;7.68;;;6.35;;
40044;SDS011;25735;48.122;11.422;2022-10-04T21:54:36;7.97;;;6.00;;
40044;SDS011;25735;48.122;11.422;2022-10-04T21:57:01;8.07;;;6.77;;
40044;SDS011;25735;48.122;11.422;2022-10-04T21:59:26;10.20;;;6.30;;
40044;SDS011;25735;48.122;11.422;2022-10-04T22:01:51;7.83;;;6.00;;
40044;SDS011;25735;48.122;11.422;2022-10-04T22:04:17;7.93;;;6.40;;
40044;SDS011;25735;48.122;11.422;2022-10-04T22:06:42;8.68;;;6.35;;
40044;SDS011;25735;48.122;11.422;2022-10-04T22:09:08;7.55;;;6.32;;
40044;SDS011;25735;48.122;11.422;2022-10-04T22:11:33;9.07;;;6.35;;
40044;SDS011;25735;48.122;11.422;2022-10-04T22:13:58;8.52;;;5.97;;
40044;SDS011;25735;48.122;11.422;2022-10-04T22:16:24;9.23;;;6.40;;
40044;SDS011;25735;48.122;11.422;2022-10-04T22:18:49;9.88;;;6.53;;
40044;SDS011;25735;48.122;11.422;2022-10-04T22:21:14;10.13;;;6.80;;
40044;SDS011;25735;48.122;11.422;2022-10-04T22:23:40;15.67;;;7.17;;
40044;SDS011;25735;48.122;11.422;2022-10-04T22:26:10;8.13;;;6.32;;
40044;SDS011;25735;48.122;11.422;2022-10-04T22:28:35;8.95;;;6.35;;
40044;SDS011;25735;48.122;11.422;2022-10-04T22:31:07;8.98;;;6.00;;
40044;SDS011;25735;48.122;11.422;2022-10-04T22:33:34;6.22;;;5.60;;
40044;SDS011;25735;48.122;11.422;2022-10-04T22:38:34;9.10;;;6.60;;
40044;SDS011;25735;48.122;11.422;2022-10-04T22:41:00;7.50;;;5.97;;
40044;SDS011;25735;48.122;11.422;2022-10-04T22:43:25;7.38;;;6.53;;
40044;SDS011;25735;48.122;11.422;2022-10-04T22:45:50;7.83;;;5.70;;
40044;SDS011;25735;48.122;11.422;2022-10-04T22:48:16;9.93;;;5.93;;
40044;SDS011;25735;48.122;11.422;2022-10-04T22:50:41;9.37;;;7.40;;
40044;SDS011;25735;48.122;11.422;2022-10-04T22:53:11;7.53;;;5.60;;
40044;SDS011;25735;48.122;11.422;2022-10-04T22:55:40;8.87;;;6.23;;
40044;SDS011;25735;48.122;11.422;2022-10-04T22:58:08;6.03;;;5.38;;
40044;SDS011;25735;48.122;11.422;2022-10-04T23:00:33;6.13;;;5.47;;
40044;SDS011;25735;48.122;11.422;2022-10-04T23:02:58;8.63;;;6.00;;
40044;SDS011;25735;48.122;11.422;2022-10-04T23:05:24;7.97;;;6.20;;
40044;SDS011;25735;48.122;11.422;2022-10-04T23:07:49;9.90;;;6.55;;
40044;SDS011;25735;48.122;11.422;2022-10-04T23:10:16;9.10;;;6.37;;
40044;SDS011;25735;48.122;11.422;2022-10-04T23:12:45;8.20;;;5.70;;
40044;SDS011;25735;48.122;11.422;2022-10-04T23:15:13;8.35;;;6.45;;
40044;SDS011;25735;48.122;11.422;2022-10-04T23:17:38;9.13;;;6.50;;
40044;SDS011;25735;48.122;11.422;2022-10-04T23:20:14;6.73;;;5.63;;
40044;SDS011;25735;48.122;11.422;2022-10-04T23:22:43;10.07;;;5.90;;
40044;SDS011;25735;48.122;11.422;2022-10-04T23:25:14;7.32;;;6.05;;
40044;SDS011;25735;48.122;11.422;2022-10-04T23:27:39;8.57;;;6.55;;
40044;SDS011;25735;48.122;11.422;2022-10-04T23:30:05;8.57;;;5.78;;
40044;SDS011;25735;48.122;11.422;2022-10-04T23:32:30;6.82;;;6.10;;
40044;SDS011;25735;48.122;11.422;2022-10-04T23:34:56;8.45;;;6.05;;
40044;SDS011;25735;48.122;11.422;2022-10-04T23:37:24;7.25;;;5.68;;
40044;SDS011;25735;48.122;11.422;2022-10-04T23:39:49;7.10;;;5.38;;
40044;SDS011;25735;48.122;11.422;2022-10-04T23:42:16;6.70;;;5.43;;
40044;SDS011;25735;48.122;11.422;2022-10-04T23:44:42;7.05;;;5.13;;
40044;SDS011;25735;48.122;11.422;2022-10-04T23:47:09;9.18;;;5.60;;
40044;SDS011;25735;48.122;11.422;2022-10-04T23:49:36;8.95;;;6.00;;
40044;SDS011;25735;48.122;11.422;2022-10-04T23:52:01;6.83;;;5.23;;
40044;SDS011;25735;48.122;11.422;2022-10-04T23:54:27;6.72;;;5.35;;
40044;SDS011;25735;48.122;11.422;2022-10-04T23:56:52;9.23;;;5.28;;
40044;SDS011;25735;48.122;11.422;2022-10-04T23:59:19;8.00;;;5.67;;
